sensor_id;sensor_type;location;lat;lon;timestamp;P1;durP1;ratioP1;P2;durP2;ratioP2
83247;SDS011;73465;51.038;7.052;2023-12-20T00:02:02;1.77;;;0.50;;
83247;SDS011;73465;51.038;7.052;2023-12-20T00:04:28;0.80;;;0.43;;
83247;SDS011;73465;51.038;7.052;2023-12-20T00:06:53;5.63;;;0.60;;
83247;SDS011;73465;51.038;7.052;2023-12-20T00:09:18;5.50;;;0.70;;
83247;SDS011;73465;51.038;7.052;2023-12-20T00:11:44;2.35;;;0.43;;
83247;SDS011;73465;51.038;7.052;2023-12-20T00:14:09;0.75;;;0.30;;
83247;SDS011;73465;51.038;7.052;2023-12-20T00:16:34;1.55;;;0.50;;
83247;SDS011;73465;51.038;7.052;2023-12-20T00:19:00;2.13;;;0.43;;
83247;SDS011;73465;51.038;7.052;2023-12-20T00:21:25;3.08;;;0.52;;
83247;SDS011;73465;51.038;7.052;2023-12-20T00:23:50;2.78;;;0.43;;
83247;SDS011;73465;51.038;7.052;2023-12-20T00:26:16;2.80;;;0.40;;
83247;SDS011;73465;51.038;7.052;2023-12-20T00:28:41;0.85;;;0.47;;
83247;SDS011;73465;51.038;7.052;2023-12-20T00:31:07;1.23;;;0.50;;
83247;SDS011;73465;51.038;7.052;2023-12-20T00:33:33;9.10;;;1.25;;
83247;SDS011;73465;51.038;7.052;2023-12-20T00:35:58;5.85;;;0.73;;
83247;SDS011;73465;51.038;7.052;2023-12-20T00:38:24;0.65;;;0.55;;
83247;SDS011;73465;51.038;7.052;2023-12-20T00:40:49;0.82;;;0.40;;
83247;SDS011;73465;51.038;7.052;2023-12-20T00:43:14;1.15;;;0.63;;
83247;SDS011;73465;51.038;7.052;2023-12-20T00:45:42;3.15;;;0.57;;
83247;SDS011;73465;51.038;7.052;2023-12-20T00:48:07;1.25;;;0.80;;
83247;SDS011;73465;51.038;7.052;2023-12-20T00:50:33;2.78;;;0.47;;
83247;SDS011;73465;51.038;7.052;2023-12-20T00:52:58;2.70;;;0.68;;
83247;SDS011;73465;51.038;7.052;2023-12-20T00:55:23;3.08;;;0.55;;
83247;SDS011;73465;51.038;7.052;2023-12-20T00:57:49;0.80;;;0.30;;
83247;SDS011;73465;51.038;7.052;2023-12-20T01:00:14;2.03;;;0.60;;
83247;SDS011;73465;51.038;7.052;2023-12-20T01:02:40;1.67;;;0.50;;
83247;SDS011;73465;51.038;7.052;2023-12-20T01:05:05;2.42;;;0.40;;
83247;SDS011;73465;51.038;7.052;2023-12-20T01:07:32;3.25;;;0.30;;
83247;SDS011;73465;51.038;7.052;2023-12-20T01:09:57;0.65;;;0.30;;
83247;SDS011;73465;51.038;7.052;2023-12-20T01:12:23;1.17;;;0.40;;
83247;SDS011;73465;51.038;7.052;2023-12-20T01:14:48;1.02;;;0.32;;
83247;SDS011;73465;51.038;7.052;2023-12-20T01:17:13;3.53;;;0.80;;
83247;SDS011;73465;51.038;7.052;2023-12-20T01:19:39;3.10;;;0.50;;
83247;SDS011;73465;51.038;7.052;2023-12-20T01:22:04;3.08;;;0.57;;
83247;SDS011;73465;51.038;7.052;2023-12-20T01:24:29;4.55;;;0.55;;
83247;SDS011;73465;51.038;7.052;2023-12-20T01:26:55;0.70;;;0.40;;
83247;SDS011;73465;51.038;7.052;2023-12-20T01:29:20;1.55;;;0.35;;
83247;SDS011;73465;51.038;7.052;2023-12-20T01:31:46;4.57;;;0.40;;
83247;SDS011;73465;51.038;7.052;2023-12-20T01:34:12;1.40;;;0.40;;
83247;SDS011;73465;51.038;7.052;2023-12-20T01:36:37;1.17;;;0.40;;
83247;SDS011;73465;51.038;7.052;2023-12-20T01:39:02;3.45;;;0.68;;
83247;SDS011;73465;51.038;7.052;2023-12-20T01:41:28;1.60;;;0.55;;
83247;SDS011;73465;51.038;7.052;2023-12-20T01:43:53;2.05;;;0.73;;
83247;SDS011;73465;51.038;7.052;2023-12-20T01:46:19;1.30;;;0.60;;
83247;SDS011;73465;51.038;7.052;2023-12-20T01:48:45;0.85;;;0.20;;
83247;SDS011;73465;51.038;7.052;2023-12-20T01:51:11;2.67;;;0.60;;
83247;SDS011;73465;51.038;7.052;2023-12-20T01:53:36;3.72;;;0.50;;
83247;SDS011;73465;51.038;7.052;2023-12-20T01:56:02;1.58;;;1.00;;
83247;SDS011;73465;51.038;7.052;2023-12-20T01:58:29;1.83;;;0.63;;
83247;SDS011;73465;51.038;7.052;2023-12-20T02:00:54;3.67;;;0.40;;
83247;SDS011;73465;51.038;7.052;2023-12-20T02:03:22;1.98;;;0.60;;
83247;SDS011;73465;51.038;7.052;2023-12-20T02:05:47;0.77;;;0.38;;
83247;SDS011;73465;51.038;7.052;2023-12-20T02:08:13;3.85;;;0.70;;
83247;SDS011;73465;51.038;7.052;2023-12-20T02:10:38;0.85;;;0.35;;
83247;SDS011;73465;51.038;7.052;2023-12-20T02:13:05;0.90;;;0.30;;
83247;SDS011;73465;51.038;7.052;2023-12-20T02:15:31;0.75;;;0.45;;
83247;SDS011;73465;51.038;7.052;2023-12-20T02:17:56;0.68;;;0.40;;
83247;SDS011;73465;51.038;7.052;2023-12-20T02:20:22;0.98;;;0.40;;
83247;SDS011;73465;51.038;7.052;2023-12-20T02:22:52;2.03;;;0.80;;
83247;SDS011;73465;51.038;7.052;2023-12-20T02:25:17;2.13;;;0.50;;
83247;SDS011;73465;51.038;7.052;2023-12-20T02:27:42;1.80;;;0.45;;
83247;SDS011;73465;51.038;7.052;2023-12-20T02:30:08;1.80;;;0.52;;
83247;SDS011;73465;51.038;7.052;2023-12-20T02:32:35;0.95;;;0.45;;
83247;SDS011;73465;51.038;7.052;2023-12-20T02:35:00;1.27;;;0.57;;
83247;SDS011;73465;51.038;7.052;2023-12-20T02:37:25;0.40;;;0.20;;
83247;SDS011;73465;51.038;7.052;2023-12-20T02:39:51;5.10;;;0.63;;
83247;SDS011;73465;51.038;7.052;2023-12-20T02:42:16;2.38;;;0.45;;
83247;SDS011;73465;51.038;7.052;2023-12-20T02:44:41;0.73;;;0.30;;
83247;SDS011;73465;51.038;7.052;2023-12-20T02:47:07;1.38;;;0.47;;
83247;SDS011;73465;51.038;7.052;2023-12-20T02:49:32;9.90;;;0.57;;
83247;SDS011;73465;51.038;7.052;2023-12-20T02:51:57;4.65;;;0.30;;
83247;SDS011;73465;51.038;7.052;2023-12-20T02:54:22;0.40;;;0.30;;
83247;SDS011;73465;51.038;7.052;2023-12-20T02:56:48;2.05;;;0.32;;
83247;SDS011;73465;51.038;7.052;2023-12-20T02:59:13;5.00;;;0.30;;
83247;SDS011;73465;51.038;7.052;2023-12-20T03:01:42;1.35;;;0.20;;
83247;SDS011;73465;51.038;7.052;2023-12-20T03:04:09;0.30;;;0.30;;
83247;SDS011;73465;51.038;7.052;2023-12-20T03:06:35;1.05;;;0.43;;
83247;SDS011;73465;51.038;7.052;2023-12-20T03:09:00;0.95;;;0.35;;
83247;SDS011;73465;51.038;7.052;2023-12-20T03:11:28;0.95;;;0.50;;
83247;SDS011;73465;51.038;7.052;2023-12-20T03:13:54;0.40;;;0.30;;
83247;SDS011;73465;51.038;7.052;2023-12-20T03:16:20;1.05;;;0.30;;
83247;SDS011;73465;51.038;7.052;2023-12-20T03:18:45;6.18;;;0.40;;
83247;SDS011;73465;51.038;7.052;2023-12-20T03:21:10;4.03;;;0.40;;
83247;SDS011;73465;51.038;7.052;2023-12-20T03:23:36;1.23;;;0.40;;
83247;SDS011;73465;51.038;7.052;2023-12-20T03:26:01;1.25;;;0.40;;
83247;SDS011;73465;51.038;7.052;2023-12-20T03:28:27;1.02;;;0.40;;
83247;SDS011;73465;51.038;7.052;2023-12-20T03:30:53;1.33;;;0.63;;
83247;SDS011;73465;51.038;7.052;2023-12-20T03:33:18;0.68;;;0.30;;
83247;SDS011;73465;51.038;7.052;2023-12-20T03:35:44;3.88;;;0.52;;
83247;SDS011;73465;51.038;7.052;2023-12-20T03:38:09;1.38;;;0.40;;
83247;SDS011;73465;51.038;7.052;2023-12-20T03:40:34;0.82;;;0.40;;
83247;SDS011;73465;51.038;7.052;2023-12-20T03:43:00;1.38;;;0.40;;
83247;SDS011;73465;51.038;7.052;2023-12-20T03:45:25;1.52;;;0.55;;
83247;SDS011;73465;51.038;7.052;2023-12-20T03:47:50;0.60;;;0.30;;
83247;SDS011;73465;51.038;7.052;2023-12-20T03:50:20;1.30;;;0.40;;
83247;SDS011;73465;51.038;7.052;2023-12-20T03:52:47;1.50;;;0.35;;
83247;SDS011;73465;51.038;7.052;2023-12-20T03:55:12;0.70;;;0.32;;
83247;SDS011;73465;51.038;7.052;2023-12-20T03:57:37;2.13;;;0.35;;
83247;SDS011;73465;51.038;7.052;2023-12-20T04:00:03;0.80;;;0.35;;
83247;SDS011;73465;51.038;7.052;2023-12-20T04:02:28;4.90;;;0.40;;
83247;SDS011;73465;51.038;7.052;2023-12-20T04:04:54;1.77;;;0.45;;
83247;SDS011;73465;51.038;7.052;2023-12-20T04:07:19;0.73;;;0.38;;
83247;SDS011;73465;51.038;7.052;2023-12-20T04:09:44;2.47;;;0.57;;
83247;SDS011;73465;51.038;7.052;2023-12-20T04:12:10;0.70;;;0.30;;
83247;SDS011;73465;51.038;7.052;2023-12-20T04:14:35;4.28;;;0.40;;
83247;SDS011;73465;51.038;7.052;2023-12-20T04:17:00;4.65;;;0.50;;
83247;SDS011;73465;51.038;7.052;2023-12-20T04:19:26;5.07;;;0.50;;
83247;SDS011;73465;51.038;7.052;2023-12-20T04:21:51;2.15;;;0.65;;
83247;SDS011;73465;51.038;7.052;2023-12-20T04:24:16;1.83;;;0.60;;
83247;SDS011;73465;51.038;7.052;2023-12-20T04:26:41;1.92;;;0.68;;
83247;SDS011;73465;51.038;7.052;2023-12-20T04:29:07;11.38;;;0.98;;
83247;SDS011;73465;51.038;7.052;2023-12-20T04:31:32;1.77;;;0.45;;
83247;SDS011;73465;51.038;7.052;2023-12-20T04:33:57;2.55;;;0.30;;
83247;SDS011;73465;51.038;7.052;2023-12-20T04:36:23;2.67;;;0.40;;
83247;SDS011;73465;51.038;7.052;2023-12-20T04:38:50;2.53;;;0.30;;
83247;SDS011;73465;51.038;7.052;2023-12-20T04:41:15;3.05;;;0.30;;
83247;SDS011;73465;51.038;7.052;2023-12-20T04:43:41;0.88;;;0.30;;
83247;SDS011;73465;51.038;7.052;2023-12-20T04:46:06;3.85;;;0.60;;
83247;SDS011;73465;51.038;7.052;2023-12-20T04:48:32;1.70;;;0.55;;
83247;SDS011;73465;51.038;7.052;2023-12-20T04:50:57;0.43;;;0.20;;
83247;SDS011;73465;51.038;7.052;2023-12-20T04:53:22;2.42;;;0.30;;
83247;SDS011;73465;51.038;7.052;2023-12-20T04:55:48;0.50;;;0.30;;
83247;SDS011;73465;51.038;7.052;2023-12-20T04:58:13;4.95;;;0.50;;
83247;SDS011;73465;51.038;7.052;2023-12-20T05:00:38;0.98;;;0.32;;
83247;SDS011;73465;51.038;7.052;2023-12-20T05:03:04;1.52;;;0.22;;
83247;SDS011;73465;51.038;7.052;2023-12-20T05:05:29;0.57;;;0.30;;
83247;SDS011;73465;51.038;7.052;2023-12-20T05:07:54;0.75;;;0.22;;
83247;SDS011;73465;51.038;7.052;2023-12-20T05:10:20;1.50;;;0.20;;
83247;SDS011;73465;51.038;7.052;2023-12-20T05:12:45;1.80;;;0.20;;
83247;SDS011;73465;51.038;7.052;2023-12-20T05:15:10;1.45;;;0.65;;
83247;SDS011;73465;51.038;7.052;2023-12-20T05:17:36;1.02;;;0.30;;
83247;SDS011;73465;51.038;7.052;2023-12-20T05:20:01;0.90;;;0.25;;
83247;SDS011;73465;51.038;7.052;2023-12-20T05:22:27;1.02;;;0.30;;
83247;SDS011;73465;51.038;7.052;2023-12-20T05:24:52;1.02;;;0.47;;
83247;SDS011;73465;51.038;7.052;2023-12-20T05:27:18;3.63;;;0.43;;
83247;SDS011;73465;51.038;7.052;2023-12-20T05:29:43;2.83;;;0.47;;
83247;SDS011;73465;51.038;7.052;2023-12-20T05:32:09;0.60;;;0.47;;
83247;SDS011;73465;51.038;7.052;2023-12-20T05:34:34;2.05;;;0.60;;
83247;SDS011;73465;51.038;7.052;2023-12-20T05:37:00;1.17;;;0.55;;
83247;SDS011;73465;51.038;7.052;2023-12-20T05:39:26;0.77;;;0.45;;
83247;SDS011;73465;51.038;7.052;2023-12-20T05:41:52;0.80;;;0.40;;
83247;SDS011;73465;51.038;7.052;2023-12-20T05:44:17;10.30;;;0.40;;
83247;SDS011;73465;51.038;7.052;2023-12-20T05:46:42;8.50;;;0.90;;
83247;SDS011;73465;51.038;7.052;2023-12-20T05:49:08;10.57;;;1.00;;
83247;SDS011;73465;51.038;7.052;2023-12-20T05:51:34;5.45;;;1.33;;
83247;SDS011;73465;51.038;7.052;2023-12-20T05:53:59;10.48;;;2.05;;
83247;SDS011;73465;51.038;7.052;2023-12-20T05:56:24;12.82;;;2.00;;
83247;SDS011;73465;51.038;7.052;2023-12-20T05:58:50;11.40;;;1.90;;
83247;SDS011;73465;51.038;7.052;2023-12-20T06:01:15;9.63;;;1.48;;
83247;SDS011;73465;51.038;7.052;2023-12-20T06:03:43;6.38;;;1.45;;
83247;SDS011;73465;51.038;7.052;2023-12-20T06:06:09;3.55;;;1.38;;
83247;SDS011;73465;51.038;7.052;2023-12-20T06:08:35;8.50;;;1.40;;
83247;SDS011;73465;51.038;7.052;2023-12-20T06:11:01;11.23;;;1.52;;
83247;SDS011;73465;51.038;7.052;2023-12-20T06:13:26;6.45;;;1.33;;
83247;SDS011;73465;51.038;7.052;2023-12-20T06:15:52;6.85;;;1.30;;
83247;SDS011;73465;51.038;7.052;2023-12-20T06:18:17;5.63;;;1.10;;
83247;SDS011;73465;51.038;7.052;2023-12-20T06:20:42;4.07;;;1.13;;
83247;SDS011;73465;51.038;7.052;2023-12-20T06:23:08;2.65;;;1.00;;
83247;SDS011;73465;51.038;7.052;2023-12-20T06:25:33;5.25;;;0.85;;
83247;SDS011;73465;51.038;7.052;2023-12-20T06:27:58;7.50;;;1.95;;
83247;SDS011;73465;51.038;7.052;2023-12-20T06:30:23;8.00;;;1.02;;
83247;SDS011;73465;51.038;7.052;2023-12-20T06:32:50;9.73;;;1.33;;
83247;SDS011;73465;51.038;7.052;2023-12-20T06:35:15;4.75;;;0.70;;
83247;SDS011;73465;51.038;7.052;2023-12-20T06:37:41;5.20;;;1.02;;
83247;SDS011;73465;51.038;7.052;2023-12-20T06:40:08;6.90;;;1.27;;
83247;SDS011;73465;51.038;7.052;2023-12-20T06:42:35;7.75;;;1.00;;
83247;SDS011;73465;51.038;7.052;2023-12-20T06:45:00;6.90;;;0.95;;
83247;SDS011;73465;51.038;7.052;2023-12-20T06:47:26;3.10;;;0.82;;
83247;SDS011;73465;51.038;7.052;2023-12-20T06:49:51;4.82;;;0.82;;
83247;SDS011;73465;51.038;7.052;2023-12-20T06:52:17;5.60;;;1.00;;
83247;SDS011;73465;51.038;7.052;2023-12-20T06:54:42;5.68;;;0.90;;
83247;SDS011;73465;51.038;7.052;2023-12-20T06:57:07;3.38;;;0.90;;
83247;SDS011;73465;51.038;7.052;2023-12-20T06:59:33;3.25;;;1.10;;
83247;SDS011;73465;51.038;7.052;2023-12-20T07:02:03;7.40;;;1.00;;
83247;SDS011;73465;51.038;7.052;2023-12-20T07:04:30;4.45;;;0.80;;
83247;SDS011;73465;51.038;7.052;2023-12-20T07:06:55;5.80;;;0.80;;
83247;SDS011;73465;51.038;7.052;2023-12-20T07:09:22;5.63;;;1.00;;
83247;SDS011;73465;51.038;7.052;2023-12-20T07:11:47;4.68;;;0.77;;
83247;SDS011;73465;51.038;7.052;2023-12-20T07:14:13;6.18;;;0.77;;
83247;SDS011;73465;51.038;7.052;2023-12-20T07:16:39;3.35;;;0.93;;
83247;SDS011;73465;51.038;7.052;2023-12-20T07:19:05;3.75;;;0.90;;
83247;SDS011;73465;51.038;7.052;2023-12-20T07:21:30;2.40;;;0.90;;
83247;SDS011;73465;51.038;7.052;2023-12-20T07:23:56;3.35;;;0.65;;
83247;SDS011;73465;51.038;7.052;2023-12-20T07:26:21;2.40;;;0.77;;
83247;SDS011;73465;51.038;7.052;2023-12-20T07:28:47;2.55;;;0.63;;
83247;SDS011;73465;51.038;7.052;2023-12-20T07:31:12;3.88;;;0.70;;
83247;SDS011;73465;51.038;7.052;2023-12-20T07:33:37;4.90;;;1.02;;
83247;SDS011;73465;51.038;7.052;2023-12-20T07:36:03;7.80;;;1.02;;
83247;SDS011;73465;51.038;7.052;2023-12-20T07:38:28;2.88;;;1.35;;
83247;SDS011;73465;51.038;7.052;2023-12-20T07:40:53;3.13;;;0.80;;
83247;SDS011;73465;51.038;7.052;2023-12-20T07:43:19;5.78;;;0.95;;
83247;SDS011;73465;51.038;7.052;2023-12-20T07:45:44;1.90;;;0.40;;
83247;SDS011;73465;51.038;7.052;2023-12-20T07:48:09;3.85;;;0.80;;
83247;SDS011;73465;51.038;7.052;2023-12-20T07:50:35;2.33;;;0.90;;
83247;SDS011;73465;51.038;7.052;2023-12-20T07:53:00;2.95;;;0.50;;
83247;SDS011;73465;51.038;7.052;2023-12-20T07:55:26;2.00;;;0.60;;
83247;SDS011;73465;51.038;7.052;2023-12-20T07:57:52;2.70;;;0.80;;
83247;SDS011;73465;51.038;7.052;2023-12-20T08:00:17;2.15;;;0.68;;
83247;SDS011;73465;51.038;7.052;2023-12-20T08:02:43;5.18;;;0.82;;
83247;SDS011;73465;51.038;7.052;2023-12-20T08:05:08;2.15;;;0.65;;
83247;SDS011;73465;51.038;7.052;2023-12-20T08:07:34;1.60;;;0.70;;
83247;SDS011;73465;51.038;7.052;2023-12-20T08:09:59;7.70;;;1.02;;
83247;SDS011;73465;51.038;7.052;2023-12-20T08:12:24;3.60;;;0.52;;
83247;SDS011;73465;51.038;7.052;2023-12-20T08:14:52;1.70;;;0.60;;
83247;SDS011;73465;51.038;7.052;2023-12-20T08:17:18;2.17;;;0.68;;
83247;SDS011;73465;51.038;7.052;2023-12-20T08:19:44;1.63;;;0.57;;
83247;SDS011;73465;51.038;7.052;2023-12-20T08:22:09;2.30;;;0.60;;
83247;SDS011;73465;51.038;7.052;2023-12-20T08:24:35;2.58;;;0.65;;
83247;SDS011;73465;51.038;7.052;2023-12-20T08:27:00;1.33;;;0.43;;
83247;SDS011;73465;51.038;7.052;2023-12-20T08:29:25;2.33;;;0.57;;
83247;SDS011;73465;51.038;7.052;2023-12-20T08:31:54;2.17;;;0.88;;
83247;SDS011;73465;51.038;7.052;2023-12-20T08:34:20;5.00;;;0.80;;
83247;SDS011;73465;51.038;7.052;2023-12-20T08:36:45;2.38;;;0.90;;
83247;SDS011;73465;51.038;7.052;2023-12-20T08:39:11;3.78;;;0.70;;
83247;SDS011;73465;51.038;7.052;2023-12-20T08:41:36;1.98;;;0.68;;
83247;SDS011;73465;51.038;7.052;2023-12-20T08:44:02;2.33;;;0.57;;
83247;SDS011;73465;51.038;7.052;2023-12-20T08:46:28;1.85;;;0.70;;
83247;SDS011;73465;51.038;7.052;2023-12-20T08:48:54;5.38;;;0.60;;
83247;SDS011;73465;51.038;7.052;2023-12-20T08:51:19;3.40;;;0.90;;
83247;SDS011;73465;51.038;7.052;2023-12-20T08:53:47;2.05;;;0.70;;
83247;SDS011;73465;51.038;7.052;2023-12-20T08:56:13;11.65;;;0.85;;
83247;SDS011;73465;51.038;7.052;2023-12-20T08:58:39;3.78;;;0.68;;
83247;SDS011;73465;51.038;7.052;2023-12-20T09:01:04;2.45;;;0.75;;
83247;SDS011;73465;51.038;7.052;2023-12-20T09:03:29;1.73;;;0.70;;
83247;SDS011;73465;51.038;7.052;2023-12-20T09:05:55;4.93;;;0.80;;
83247;SDS011;73465;51.038;7.052;2023-12-20T09:08:20;2.35;;;0.60;;
83247;SDS011;73465;51.038;7.052;2023-12-20T09:10:45;10.10;;;0.95;;
83247;SDS011;73465;51.038;7.052;2023-12-20T09:13:11;3.30;;;0.88;;
83247;SDS011;73465;51.038;7.052;2023-12-20T09:15:36;4.50;;;0.70;;
83247;SDS011;73465;51.038;7.052;2023-12-20T09:18:02;1.15;;;0.60;;
83247;SDS011;73465;51.038;7.052;2023-12-20T09:20:27;1.50;;;0.68;;
83247;SDS011;73465;51.038;7.052;2023-12-20T09:22:53;2.35;;;0.68;;
83247;SDS011;73465;51.038;7.052;2023-12-20T09:25:18;2.03;;;0.60;;
83247;SDS011;73465;51.038;7.052;2023-12-20T09:27:43;1.95;;;0.60;;
83247;SDS011;73465;51.038;7.052;2023-12-20T09:30:09;5.65;;;0.70;;
83247;SDS011;73465;51.038;7.052;2023-12-20T09:32:34;3.85;;;0.73;;
83247;SDS011;73465;51.038;7.052;2023-12-20T09:35:00;1.75;;;0.60;;
83247;SDS011;73465;51.038;7.052;2023-12-20T09:37:26;2.35;;;0.50;;
83247;SDS011;73465;51.038;7.052;2023-12-20T09:39:52;1.85;;;0.73;;
83247;SDS011;73465;51.038;7.052;2023-12-20T09:42:21;0.93;;;0.47;;
83247;SDS011;73465;51.038;7.052;2023-12-20T09:44:53;4.75;;;0.70;;
83247;SDS011;73465;51.038;7.052;2023-12-20T09:47:19;3.58;;;0.98;;
83247;SDS011;73465;51.038;7.052;2023-12-20T09:49:47;8.52;;;0.80;;
83247;SDS011;73465;51.038;7.052;2023-12-20T09:52:14;1.88;;;0.55;;
83247;SDS011;73465;51.038;7.052;2023-12-20T09:54:40;2.08;;;0.63;;
83247;SDS011;73465;51.038;7.052;2023-12-20T09:57:08;2.65;;;0.77;;
83247;SDS011;73465;51.038;7.052;2023-12-20T09:59:34;2.13;;;0.77;;
83247;SDS011;73465;51.038;7.052;2023-12-20T10:01:59;2.33;;;0.60;;
83247;SDS011;73465;51.038;7.052;2023-12-20T10:04:28;4.38;;;0.75;;
83247;SDS011;73465;51.038;7.052;2023-12-20T10:06:57;1.75;;;0.57;;
83247;SDS011;73465;51.038;7.052;2023-12-20T10:09:28;3.67;;;0.70;;
83247;SDS011;73465;51.038;7.052;2023-12-20T10:11:56;3.90;;;1.05;;
83247;SDS011;73465;51.038;7.052;2023-12-20T10:14:22;2.88;;;0.77;;
83247;SDS011;73465;51.038;7.052;2023-12-20T10:16:50;0.68;;;0.32;;
83247;SDS011;73465;51.038;7.052;2023-12-20T10:19:19;2.35;;;0.63;;
83247;SDS011;73465;51.038;7.052;2023-12-20T10:21:44;2.40;;;0.70;;
83247;SDS011;73465;51.038;7.052;2023-12-20T10:24:11;1.65;;;0.57;;
83247;SDS011;73465;51.038;7.052;2023-12-20T10:26:42;5.68;;;0.80;;
83247;SDS011;73465;51.038;7.052;2023-12-20T10:29:07;2.03;;;0.65;;
83247;SDS011;73465;51.038;7.052;2023-12-20T10:31:33;3.20;;;0.50;;
83247;SDS011;73465;51.038;7.052;2023-12-20T10:34:00;2.10;;;0.80;;
83247;SDS011;73465;51.038;7.052;2023-12-20T10:36:28;1.48;;;0.70;;
83247;SDS011;73465;51.038;7.052;2023-12-20T10:38:57;3.47;;;0.70;;
83247;SDS011;73465;51.038;7.052;2023-12-20T10:41:27;1.98;;;0.60;;
83247;SDS011;73465;51.038;7.052;2023-12-20T10:43:55;1.85;;;0.45;;
83247;SDS011;73465;51.038;7.052;2023-12-20T10:46:23;2.33;;;0.50;;
83247;SDS011;73465;51.038;7.052;2023-12-20T10:48:51;4.40;;;0.60;;
83247;SDS011;73465;51.038;7.052;2023-12-20T10:51:18;1.10;;;0.50;;
83247;SDS011;73465;51.038;7.052;2023-12-20T10:53:46;2.88;;;0.80;;
83247;SDS011;73465;51.038;7.052;2023-12-20T10:56:12;3.22;;;0.77;;
83247;SDS011;73465;51.038;7.052;2023-12-20T10:58:42;2.90;;;0.50;;
83247;SDS011;73465;51.038;7.052;2023-12-20T11:01:10;7.35;;;0.98;;
83247;SDS011;73465;51.038;7.052;2023-12-20T11:03:38;12.98;;;0.73;;
83247;SDS011;73465;51.038;7.052;2023-12-20T11:06:14;5.78;;;0.70;;
83247;SDS011;73465;51.038;7.052;2023-12-20T11:08:52;12.63;;;1.90;;
83247;SDS011;73465;51.038;7.052;2023-12-20T11:14:41;4.10;;;1.13;;
83247;SDS011;73465;51.038;7.052;2023-12-20T11:17:11;9.00;;;1.77;;
83247;SDS011;73465;51.038;7.052;2023-12-20T11:22:26;7.78;;;1.90;;
83247;SDS011;73465;51.038;7.052;2023-12-20T11:24:53;4.50;;;0.95;;
83247;SDS011;73465;51.038;7.052;2023-12-20T11:27:19;9.23;;;1.40;;
83247;SDS011;73465;51.038;7.052;2023-12-20T11:29:52;7.05;;;1.20;;
83247;SDS011;73465;51.038;7.052;2023-12-20T11:34:51;6.00;;;1.30;;
83247;SDS011;73465;51.038;7.052;2023-12-20T11:37:19;5.65;;;1.70;;
83247;SDS011;73465;51.038;7.052;2023-12-20T11:39:44;2.78;;;1.08;;
83247;SDS011;73465;51.038;7.052;2023-12-20T11:42:10;6.13;;;1.10;;
83247;SDS011;73465;51.038;7.052;2023-12-20T11:44:36;2.65;;;0.95;;
83247;SDS011;73465;51.038;7.052;2023-12-20T11:47:02;3.30;;;1.00;;
83247;SDS011;73465;51.038;7.052;2023-12-20T11:49:28;4.82;;;0.77;;
83247;SDS011;73465;51.038;7.052;2023-12-20T11:51:55;6.43;;;1.15;;
83247;SDS011;73465;51.038;7.052;2023-12-20T11:54:21;24.20;;;2.17;;
83247;SDS011;73465;51.038;7.052;2023-12-20T11:56:46;23.15;;;1.98;;
83247;SDS011;73465;51.038;7.052;2023-12-20T11:59:12;11.57;;;1.70;;
83247;SDS011;73465;51.038;7.052;2023-12-20T12:01:38;8.85;;;1.35;;
83247;SDS011;73465;51.038;7.052;2023-12-20T12:04:04;7.40;;;1.30;;
83247;SDS011;73465;51.038;7.052;2023-12-20T12:06:32;9.48;;;1.13;;
83247;SDS011;73465;51.038;7.052;2023-12-20T12:08:58;3.67;;;0.93;;
83247;SDS011;73465;51.038;7.052;2023-12-20T12:11:24;5.63;;;1.30;;
83247;SDS011;73465;51.038;7.052;2023-12-20T12:13:49;6.90;;;1.58;;
83247;SDS011;73465;51.038;7.052;2023-12-20T12:16:19;4.07;;;0.95;;
83247;SDS011;73465;51.038;7.052;2023-12-20T12:18:45;8.73;;;1.98;;
83247;SDS011;73465;51.038;7.052;2023-12-20T12:21:18;6.38;;;1.33;;
83247;SDS011;73465;51.038;7.052;2023-12-20T12:23:45;10.80;;;1.75;;
83247;SDS011;73465;51.038;7.052;2023-12-20T12:26:10;9.85;;;2.08;;
83247;SDS011;73465;51.038;7.052;2023-12-20T12:28:37;7.90;;;2.30;;
83247;SDS011;73465;51.038;7.052;2023-12-20T12:31:05;8.50;;;2.17;;
83247;SDS011;73465;51.038;7.052;2023-12-20T12:33:31;7.75;;;1.90;;
83247;SDS011;73465;51.038;7.052;2023-12-20T12:35:56;8.90;;;1.90;;
83247;SDS011;73465;51.038;7.052;2023-12-20T12:38:22;4.07;;;1.83;;
83247;SDS011;73465;51.038;7.052;2023-12-20T12:40:49;8.68;;;2.08;;
83247;SDS011;73465;51.038;7.052;2023-12-20T12:43:15;12.32;;;2.00;;
83247;SDS011;73465;51.038;7.052;2023-12-20T12:45:40;4.80;;;1.45;;
83247;SDS011;73465;51.038;7.052;2023-12-20T12:48:07;6.43;;;1.73;;
83247;SDS011;73465;51.038;7.052;2023-12-20T12:50:32;8.90;;;1.58;;
83247;SDS011;73465;51.038;7.052;2023-12-20T12:52:58;3.33;;;1.50;;
83247;SDS011;73465;51.038;7.052;2023-12-20T12:55:23;9.30;;;1.48;;
83247;SDS011;73465;51.038;7.052;2023-12-20T12:57:48;6.03;;;1.67;;
83247;SDS011;73465;51.038;7.052;2023-12-20T13:00:14;5.30;;;1.65;;
83247;SDS011;73465;51.038;7.052;2023-12-20T13:02:39;7.28;;;1.77;;
83247;SDS011;73465;51.038;7.052;2023-12-20T13:05:07;4.25;;;1.38;;
83247;SDS011;73465;51.038;7.052;2023-12-20T13:07:33;7.10;;;1.75;;
83247;SDS011;73465;51.038;7.052;2023-12-20T13:09:59;10.02;;;2.30;;
83247;SDS011;73465;51.038;7.052;2023-12-20T13:12:25;3.75;;;1.13;;
83247;SDS011;73465;51.038;7.052;2023-12-20T13:14:50;8.57;;;1.85;;
83247;SDS011;73465;51.038;7.052;2023-12-20T13:17:15;9.43;;;1.65;;
83247;SDS011;73465;51.038;7.052;2023-12-20T13:19:41;3.88;;;1.50;;
83247;SDS011;73465;51.038;7.052;2023-12-20T13:22:06;4.47;;;1.70;;
83247;SDS011;73465;51.038;7.052;2023-12-20T13:24:32;8.38;;;1.33;;
83247;SDS011;73465;51.038;7.052;2023-12-20T13:26:57;2.55;;;1.33;;
83247;SDS011;73465;51.038;7.052;2023-12-20T13:29:23;4.55;;;1.40;;
83247;SDS011;73465;51.038;7.052;2023-12-20T13:31:49;6.28;;;1.50;;
83247;SDS011;73465;51.038;7.052;2023-12-20T13:34:14;5.50;;;1.65;;
83247;SDS011;73465;51.038;7.052;2023-12-20T13:36:42;7.85;;;1.40;;
83247;SDS011;73465;51.038;7.052;2023-12-20T13:39:10;7.13;;;1.40;;
83247;SDS011;73465;51.038;7.052;2023-12-20T13:41:37;6.38;;;1.35;;
83247;SDS011;73465;51.038;7.052;2023-12-20T13:44:02;4.32;;;1.02;;
83247;SDS011;73465;51.038;7.052;2023-12-20T13:46:28;4.50;;;1.20;;
83247;SDS011;73465;51.038;7.052;2023-12-20T13:48:54;4.07;;;1.35;;
83247;SDS011;73465;51.038;7.052;2023-12-20T13:51:19;4.05;;;1.38;;
83247;SDS011;73465;51.038;7.052;2023-12-20T13:53:45;5.63;;;1.48;;
83247;SDS011;73465;51.038;7.052;2023-12-20T13:56:11;5.05;;;1.40;;
83247;SDS011;73465;51.038;7.052;2023-12-20T13:58:36;6.05;;;1.50;;
83247;SDS011;73465;51.038;7.052;2023-12-20T14:01:02;4.63;;;1.20;;
83247;SDS011;73465;51.038;7.052;2023-12-20T14:03:27;6.20;;;1.20;;
83247;SDS011;73465;51.038;7.052;2023-12-20T14:05:52;5.10;;;1.67;;
83247;SDS011;73465;51.038;7.052;2023-12-20T14:08:18;7.38;;;1.25;;
83247;SDS011;73465;51.038;7.052;2023-12-20T14:10:43;3.92;;;1.25;;
83247;SDS011;73465;51.038;7.052;2023-12-20T14:13:08;5.70;;;1.27;;
83247;SDS011;73465;51.038;7.052;2023-12-20T14:15:34;2.60;;;1.17;;
83247;SDS011;73465;51.038;7.052;2023-12-20T14:18:03;5.82;;;1.17;;
83247;SDS011;73465;51.038;7.052;2023-12-20T14:20:35;2.72;;;1.17;;
83247;SDS011;73465;51.038;7.052;2023-12-20T14:23:03;8.70;;;1.33;;
83247;SDS011;73465;51.038;7.052;2023-12-20T14:25:29;4.63;;;1.00;;
83247;SDS011;73465;51.038;7.052;2023-12-20T14:27:54;4.20;;;0.85;;
83247;SDS011;73465;51.038;7.052;2023-12-20T14:30:20;3.45;;;1.20;;
83247;SDS011;73465;51.038;7.052;2023-12-20T14:32:45;7.30;;;1.52;;
83247;SDS011;73465;51.038;7.052;2023-12-20T14:35:13;4.68;;;1.20;;
83247;SDS011;73465;51.038;7.052;2023-12-20T14:37:38;3.90;;;1.10;;
83247;SDS011;73465;51.038;7.052;2023-12-20T14:40:05;4.50;;;1.25;;
83247;SDS011;73465;51.038;7.052;2023-12-20T14:42:31;10.98;;;1.90;;
83247;SDS011;73465;51.038;7.052;2023-12-20T14:44:57;5.45;;;0.93;;
83247;SDS011;73465;51.038;7.052;2023-12-20T14:47:23;2.65;;;1.08;;
83247;SDS011;73465;51.038;7.052;2023-12-20T14:49:50;9.60;;;1.27;;